createdAt,value
2019-01-17T08:25:09.514Z,8.60
2019-01-17T08:52:41.644Z,6.50
2019-01-17T08:55:10.533Z,15.00
2019-01-17T08:57:39.424Z,16.10
2019-01-17T09:00:20.662Z,16.50
2019-01-17T09:02:49.600Z,16.60
2019-01-17T09:05:18.488Z,16.90
2019-01-17T09:07:47.362Z,17.60
2019-01-17T09:10:22.414Z,17.70
2019-01-17T09:12:52.114Z,18.20
2019-01-17T09:15:23.984Z,18.60
2019-01-17T09:17:52.873Z,18.70
2019-01-17T09:20:21.762Z,19.00
2019-01-17T09:22:50.661Z,18.90
2019-01-17T09:25:19.546Z,18.80
2019-01-17T09:27:48.540Z,18.60
2019-01-17T09:30:20.190Z,18.30
2019-01-17T09:32:49.090Z,17.90
2019-01-17T09:35:19.329Z,17.30
2019-01-17T09:37:49.026Z,16.80
2019-01-17T09:40:20.944Z,16.10
2019-01-17T09:42:49.977Z,16.40
2019-01-17T09:45:20.259Z,17.20
2019-01-17T09:47:49.189Z,17.90
2019-01-17T09:50:20.615Z,17.50
2019-01-17T09:52:49.532Z,17.20
2019-01-17T09:55:18.525Z,16.80
2019-01-17T09:57:47.411Z,16.80
2019-01-17T10:00:19.581Z,17.00
2019-01-17T10:02:48.577Z,17.00
2019-01-17T10:05:17.464Z,16.80
2019-01-17T10:07:46.355Z,16.40
2019-01-17T10:10:18.526Z,16.00
2019-01-17T10:12:47.412Z,15.50
2019-01-17T10:15:21.832Z,15.10
2019-01-17T10:17:56.343Z,14.80
2019-01-17T10:20:44.498Z,14.50
2019-01-17T10:23:16.363Z,14.40
2019-01-17T10:26:06.036Z,14.50
2019-01-17T10:28:54.588Z,14.60
2019-01-17T10:31:49.184Z,14.40
2019-01-17T10:34:23.908Z,14.60
2019-01-17T10:37:01.401Z,14.60
2019-01-17T10:39:39.304Z,14.10
2019-01-17T10:42:23.289Z,13.50
2019-01-17T10:44:57.877Z,12.70
2019-01-17T10:47:52.774Z,12.10
2019-01-17T10:50:27.502Z,11.70
2019-01-17T10:53:15.951Z,11.20
2019-01-17T10:56:04.240Z,10.90
2019-01-17T10:58:44.863Z,10.60
2019-01-17T11:01:36.487Z,10.50
2019-01-17T11:04:11.625Z,10.40
2019-01-17T11:07:00.275Z,10.60
2019-01-17T11:09:53.538Z,10.70
2019-01-17T11:12:25.398Z,10.80
2019-01-17T11:15:19.685Z,11.00
2019-01-17T11:17:55.051Z,11.10
2019-01-17T11:20:41.938Z,11.40
2019-01-17T11:23:16.565Z,11.60
2019-01-17T11:25:57.232Z,11.80
2019-01-17T11:28:45.475Z,11.90
2019-01-17T11:31:41.198Z,12.00
2019-01-17T11:34:32.309Z,12.10
2019-01-17T11:37:28.231Z,12.00
2019-01-17T11:40:14.932Z,11.90
2019-01-17T11:42:55.353Z,12.00
2019-01-17T11:45:32.999Z,12.10
2019-01-17T11:48:13.566Z,12.10
2019-01-17T11:51:00.373Z,12.20
2019-01-17T11:53:34.894Z,12.10
2019-01-17T11:56:23.036Z,12.10
2019-01-17T11:59:10.263Z,12.00
2019-01-17T12:01:57.107Z,11.90
2019-01-17T12:04:30.976Z,11.90
2019-01-17T12:07:03.250Z,11.90
2019-01-17T12:09:32.140Z,11.90
2019-01-17T12:12:01.136Z,12.00
2019-01-17T12:14:30.026Z,12.20
2019-01-17T12:16:59.018Z,12.40
2019-01-17T12:19:28.010Z,12.50
2019-01-17T12:21:57.002Z,12.70
2019-01-17T12:24:25.891Z,12.80
2019-01-17T12:26:54.886Z,12.90
2019-01-17T12:29:24.595Z,12.90
2019-01-17T12:31:53.490Z,13.00
2019-01-17T12:34:22.482Z,13.00
2019-01-17T12:36:51.368Z,13.10
2019-01-17T12:39:20.368Z,13.10
2019-01-17T12:41:49.361Z,13.10
2019-01-17T12:44:18.248Z,13.10
2019-01-17T12:46:47.138Z,13.10
2019-01-17T12:49:16.130Z,12.90
2019-01-17T12:51:45.021Z,12.80
2019-01-17T12:54:14.014Z,12.70
2019-01-17T12:56:43.008Z,12.60
2019-01-17T12:59:11.898Z,12.60
2019-01-17T13:01:40.788Z,12.50
2019-01-17T13:04:09.781Z,12.50
2019-01-17T13:06:38.774Z,12.50
2019-01-17T13:09:08.567Z,12.40
2019-01-17T13:11:37.582Z,12.40
2019-01-17T13:14:06.675Z,12.40
2019-01-17T13:16:35.574Z,12.30
2019-01-17T13:19:06.025Z,12.20
2019-01-17T13:21:34.991Z,12.20
2019-01-17T13:24:03.877Z,12.10
2019-01-17T13:26:32.768Z,12.00
2019-01-17T13:29:01.663Z,12.00
2019-01-17T13:31:30.651Z,11.90
2019-01-17T13:33:59.643Z,11.80
2019-01-17T13:36:28.536Z,11.70
2019-01-17T13:38:57.429Z,11.70
2019-01-17T13:41:26.422Z,11.60
2019-01-17T13:43:55.317Z,11.60
2019-01-17T13:46:24.302Z,11.50
2019-01-17T13:48:53.298Z,11.50
2019-01-17T13:51:22.187Z,11.40
2019-01-17T13:53:51.704Z,11.30
2019-01-17T13:56:20.688Z,11.20
2019-01-17T13:58:49.576Z,11.10
2019-01-17T14:01:18.468Z,11.10
2019-01-17T14:03:47.352Z,11.00
2019-01-17T14:06:16.352Z,10.90
2019-01-17T14:08:45.243Z,10.70
2019-01-17T14:11:14.233Z,10.70
2019-01-17T14:13:43.158Z,10.60
2019-01-17T14:16:12.118Z,10.60
2019-01-17T14:18:41.115Z,10.50
2019-01-17T14:21:10.207Z,10.40
2019-01-17T14:23:39.105Z,10.30
2019-01-17T14:26:08.094Z,10.20
2019-01-17T14:28:36.987Z,10.20
2019-01-17T14:31:05.875Z,10.10
2019-01-17T14:33:34.865Z,10.00
2019-01-17T14:36:03.858Z,9.90
2019-01-17T14:38:32.743Z,9.90
2019-01-17T14:41:01.744Z,9.80
2019-01-17T14:43:30.735Z,9.70
2019-01-17T14:45:59.628Z,9.60
2019-01-17T14:48:28.521Z,9.50
2019-01-17T14:50:57.409Z,9.40
2019-01-17T14:53:26.418Z,9.40
2019-01-17T15:13:15.277Z,9.40
2019-01-17T15:15:44.165Z,8.90
2019-01-17T15:18:13.158Z,8.90
2019-01-17T15:20:42.048Z,8.70
2019-01-17T15:23:11.044Z,8.70
2019-01-17T15:25:40.041Z,8.60
2019-01-17T15:28:08.930Z,8.70
2019-01-17T15:30:37.815Z,8.60
2019-01-17T15:33:06.809Z,8.60
2019-01-17T15:35:35.805Z,8.50
2019-01-17T15:38:04.798Z,8.40
2019-01-17T15:40:33.792Z,8.40
2019-01-17T15:43:02.785Z,8.30
2019-01-17T15:45:31.676Z,8.30
2019-01-17T15:48:00.668Z,8.20
2019-01-17T15:50:29.587Z,8.20
2019-01-17T15:52:58.451Z,8.20
2019-01-17T15:55:27.336Z,8.20
2019-01-17T15:57:56.227Z,8.10
2019-01-17T16:00:28.398Z,8.10
2019-01-17T16:02:57.389Z,8.10
2019-01-17T16:05:26.484Z,8.00
2019-01-17T16:07:55.374Z,8.00
2019-01-17T16:10:24.370Z,8.00
2019-01-17T16:12:53.465Z,8.00
2019-01-17T16:15:24.918Z,8.00
2019-01-17T16:17:53.808Z,7.90
2019-01-17T16:20:22.700Z,7.90
2019-01-17T16:22:53.117Z,7.90
2019-01-17T16:25:22.013Z,7.80
2019-01-17T16:27:53.124Z,7.70
2019-01-17T16:30:27.476Z,7.50
2019-01-17T16:32:56.366Z,7.40
2019-01-17T16:35:25.256Z,7.30
2019-01-17T16:37:54.355Z,7.20
2019-01-17T16:40:23.345Z,7.00
2019-01-17T16:42:52.236Z,6.90
2019-01-17T16:45:24.186Z,6.80
2019-01-17T16:47:53.091Z,6.70
2019-01-17T16:50:24.673Z,6.60
2019-01-17T16:52:53.634Z,6.50
2019-01-17T16:55:22.634Z,6.40
2019-01-17T16:57:51.513Z,6.30
2019-01-17T17:00:26.824Z,6.30
2019-01-17T17:02:55.758Z,6.20
2019-01-17T17:05:24.636Z,6.10
2019-01-17T17:07:53.635Z,6.00
2019-01-17T17:10:23.247Z,6.00
2019-01-17T17:12:52.239Z,5.90
2019-01-17T17:15:21.230Z,5.80
2019-01-17T17:17:50.227Z,5.90
2019-01-17T17:20:22.287Z,5.80
2019-01-17T17:22:51.173Z,5.80
2019-01-17T17:25:20.072Z,5.70
2019-01-17T17:27:55.305Z,5.70
2019-01-17T17:30:25.224Z,5.70
2019-01-17T17:32:54.114Z,5.60
2019-01-17T17:35:23.006Z,5.60
2019-01-17T17:37:51.966Z,5.50
2019-01-17T17:40:23.722Z,5.50
2019-01-17T17:42:52.653Z,5.40
2019-01-17T17:45:21.844Z,5.30
2019-01-17T17:47:50.841Z,5.30
2019-01-17T17:50:21.898Z,5.30
2019-01-17T17:52:50.916Z,5.30
2019-01-17T17:55:20.367Z,5.20
2019-01-17T17:57:50.575Z,5.20
2019-01-17T18:00:45.549Z,5.20
2019-01-17T20:20:14.004Z,5.20
2019-01-17T20:22:42.938Z,7.50
